Foxton, Colorado
Current Conditions -  °F | °C
As of 8:53 PM on Saturday 25 Oct 2014 (Local Time) from KAPA Reporting Station
Clear Clear  
Wind Chill: 58°   Ceiling: Unl
Heat Index: 58°   Visibility: 10mi
Dew Point: 25°   Wind: 13mph
Humidity: 28%   Direction: 220°SW
Pressure: 30.06"   Gusts: NA
Location:  39.4975°N, 105.289°W
Report Text: KAPA 260253Z 22011KT 10SM CLR 14/M04 A3006 RMK AO2 SLP136 T01441039 53001
Loading
Personal Weather Stations






























Interactive Weather Map
Tropical Storm Tracking
New forecast layout! Learn more

10-Day Weather Forecast

Advertisements
Track Severe Weather on mobile